createdAt,value
2018-09-08T00:00:10.649Z,4.03
2018-09-08T00:02:38.088Z,3.80
2018-09-08T00:05:05.476Z,3.15
2018-09-08T00:07:32.986Z,4.90
2018-09-08T00:10:00.411Z,3.83
2018-09-08T00:12:27.875Z,3.50
2018-09-08T00:14:54.745Z,4.40
2018-09-08T00:17:27.838Z,3.53
2018-09-08T00:20:01.063Z,4.30
2018-09-08T00:22:34.054Z,4.10
2018-09-08T00:25:07.078Z,3.67
2018-09-08T00:27:34.525Z,3.47
2018-09-08T00:30:01.997Z,3.55
2018-09-08T00:32:29.505Z,4.37
2018-09-08T00:34:57.082Z,3.22
2018-09-08T00:37:24.498Z,3.15
2018-09-08T00:39:52.018Z,4.32
2018-09-08T00:42:19.428Z,3.60
2018-09-08T00:44:46.963Z,4.00
2018-09-08T00:47:14.408Z,4.30
2018-09-08T00:49:41.893Z,4.80
2018-09-08T00:52:09.316Z,3.35
2018-09-08T00:54:36.755Z,3.90
2018-09-08T00:57:04.219Z,4.07
2018-09-08T00:59:31.714Z,3.10
2018-09-08T01:01:59.104Z,3.22
2018-09-08T01:04:26.505Z,3.37
2018-09-08T01:06:54.069Z,3.10
2018-09-08T01:09:21.527Z,3.30
2018-09-08T01:11:48.956Z,4.25
2018-09-08T01:14:16.416Z,3.60
2018-09-08T01:16:43.842Z,3.67
2018-09-08T01:19:11.267Z,4.43
2018-09-08T01:21:38.719Z,3.40
2018-09-08T01:24:06.232Z,4.90
2018-09-08T01:26:33.640Z,3.28
2018-09-08T01:29:02.084Z,4.40
2018-09-08T01:31:29.518Z,4.07
2018-09-08T01:33:57.028Z,2.87
2018-09-08T01:36:24.491Z,3.08
2018-09-08T01:38:52.564Z,4.55
2018-09-08T01:41:20.356Z,3.72
2018-09-08T01:43:47.769Z,3.35
2018-09-08T01:46:15.206Z,3.50
2018-09-08T01:48:42.684Z,3.72
2018-09-08T01:51:10.152Z,3.17
2018-09-08T01:53:37.603Z,3.90
2018-09-08T01:56:05.081Z,3.50
2018-09-08T01:58:32.533Z,3.20
2018-09-08T02:01:00.021Z,3.78
2018-09-08T02:03:27.598Z,4.15
2018-09-08T02:05:55.088Z,3.85
2018-09-08T02:08:22.541Z,4.45
2018-09-08T02:10:50.001Z,3.30
2018-09-08T02:13:17.456Z,3.35
2018-09-08T02:15:44.862Z,4.55
2018-09-08T02:18:12.950Z,4.12
2018-09-08T02:20:40.431Z,3.45
2018-09-08T02:23:07.921Z,4.97
2018-09-08T02:25:35.362Z,3.40
2018-09-08T02:28:03.625Z,3.45
2018-09-08T02:30:31.031Z,3.90
2018-09-08T02:32:58.593Z,2.58
2018-09-08T02:35:26.024Z,4.55
2018-09-08T02:37:53.425Z,3.75
2018-09-08T02:40:20.926Z,4.37
2018-09-08T02:42:48.363Z,2.75
2018-09-08T02:45:15.845Z,4.43
2018-09-08T02:47:43.238Z,3.62
2018-09-08T02:50:19.140Z,4.32
2018-09-08T02:52:46.080Z,3.50
2018-09-08T02:55:12.974Z,4.32
2018-09-08T02:57:39.921Z,4.20
2018-09-08T03:00:06.786Z,4.80
2018-09-08T03:02:33.690Z,5.37
2018-09-08T03:05:00.639Z,4.22
2018-09-08T03:07:27.574Z,2.92
2018-09-08T03:09:54.537Z,3.78
2018-09-08T03:12:21.431Z,3.05
2018-09-08T03:14:48.364Z,2.85
2018-09-08T03:17:15.285Z,4.22
2018-09-08T03:19:42.255Z,3.28
2018-09-08T03:22:09.147Z,3.25
2018-09-08T03:24:36.082Z,3.03
2018-09-08T03:27:03.068Z,3.30
2018-09-08T03:29:30.760Z,3.35
2018-09-08T03:31:57.632Z,3.78
2018-09-08T03:34:24.557Z,3.53
2018-09-08T03:36:51.497Z,3.65
2018-09-08T03:39:18.494Z,3.65
2018-09-08T03:41:45.414Z,4.15
2018-09-08T03:44:12.307Z,3.78
2018-09-08T03:46:39.202Z,3.35
2018-09-08T03:49:06.750Z,5.20
2018-09-08T03:51:33.606Z,3.35
2018-09-08T03:54:00.462Z,3.95
2018-09-08T03:56:27.645Z,3.10
2018-09-08T03:58:54.550Z,4.07
2018-09-08T04:01:21.461Z,4.32
2018-09-08T04:03:48.914Z,4.00
2018-09-08T04:06:16.354Z,2.95
2018-09-08T04:08:43.812Z,3.67
2018-09-08T04:11:11.323Z,4.30
2018-09-08T04:13:38.723Z,4.40
2018-09-08T04:16:06.681Z,2.90
2018-09-08T04:18:34.090Z,4.05
2018-09-08T04:21:01.535Z,3.60
2018-09-08T04:23:28.933Z,3.33
2018-09-08T04:25:56.426Z,3.85
2018-09-08T04:28:23.885Z,3.30
2018-09-08T04:30:51.522Z,3.40
2018-09-08T04:33:18.995Z,3.35
2018-09-08T04:35:46.462Z,3.78
2018-09-08T04:38:14.155Z,3.15
2018-09-08T04:40:41.568Z,3.75
2018-09-08T04:43:08.987Z,4.03
2018-09-08T04:45:36.406Z,3.08
2018-09-08T04:48:03.869Z,3.80
2018-09-08T04:50:31.318Z,4.12
2018-09-08T04:52:58.764Z,3.87
2018-09-08T04:55:26.236Z,3.33
2018-09-08T04:57:53.706Z,2.60
2018-09-08T05:00:21.264Z,3.80
2018-09-08T05:02:48.817Z,3.83
2018-09-08T05:05:16.281Z,2.50
2018-09-08T05:07:44.281Z,3.55
2018-09-08T05:10:11.695Z,3.15
2018-09-08T05:12:39.146Z,3.80
2018-09-08T05:15:06.608Z,3.47
2018-09-08T05:17:34.018Z,5.07
2018-09-08T05:20:01.429Z,2.53
2018-09-08T05:22:28.868Z,3.33
2018-09-08T05:24:56.296Z,2.65
2018-09-08T05:27:23.876Z,3.47
2018-09-08T05:29:51.275Z,3.00
2018-09-08T05:32:18.769Z,3.33
2018-09-08T05:34:46.224Z,3.10
2018-09-08T05:37:13.629Z,3.47
2018-09-08T05:39:41.044Z,3.55
2018-09-08T05:42:08.496Z,4.03
2018-09-08T05:44:35.941Z,4.20
2018-09-08T05:47:03.375Z,4.80
2018-09-08T05:49:30.855Z,4.45
2018-09-08T05:51:58.380Z,4.10
2018-09-08T05:54:25.929Z,3.90
2018-09-08T05:56:53.397Z,4.50
2018-09-08T05:59:20.868Z,4.40
2018-09-08T06:01:48.298Z,5.30
2018-09-08T06:04:15.709Z,6.18
2018-09-08T06:06:43.123Z,4.70
2018-09-08T06:09:10.570Z,4.72
2018-09-08T06:11:37.962Z,6.10
2018-09-08T06:14:05.421Z,4.57
2018-09-08T06:16:32.901Z,5.15
2018-09-08T06:19:00.349Z,4.05
2018-09-08T06:21:27.819Z,4.80
2018-09-08T06:23:55.362Z,3.35
2018-09-08T06:26:22.860Z,6.07
2018-09-08T06:28:50.255Z,4.53
2018-09-08T06:31:17.747Z,5.78
2018-09-08T06:33:45.285Z,5.30
2018-09-08T06:36:12.714Z,4.78
2018-09-08T06:38:40.122Z,5.53
2018-09-08T06:41:07.596Z,4.03
2018-09-08T06:43:35.075Z,5.87
2018-09-08T06:46:02.561Z,4.53
2018-09-08T06:48:30.009Z,6.37
2018-09-08T06:50:57.444Z,5.25
2018-09-08T06:53:24.826Z,4.70
2018-09-08T06:55:52.360Z,6.07
2018-09-08T06:58:19.821Z,8.07
2018-09-08T07:00:47.202Z,5.57
2018-09-08T07:03:14.729Z,7.22
2018-09-08T07:05:42.210Z,6.35
2018-09-08T07:08:09.693Z,6.97
2018-09-08T07:10:37.088Z,6.95
2018-09-08T07:13:04.597Z,14.82
2018-09-08T07:15:32.053Z,8.00
2018-09-08T07:40:02.495Z,8.60
2018-09-08T07:42:29.920Z,9.38
2018-09-08T07:44:57.389Z,9.60
2018-09-08T07:47:24.818Z,11.00
2018-09-08T07:49:52.266Z,9.18
2018-09-08T07:52:20.132Z,11.30
2018-09-08T07:54:47.549Z,10.52
2018-09-08T07:57:15.042Z,12.40
2018-09-08T07:59:42.467Z,8.45
2018-09-08T08:02:09.936Z,8.80
2018-09-08T08:04:37.440Z,11.40
2018-09-08T08:07:04.847Z,10.87
2018-09-08T08:09:32.318Z,7.78
2018-09-08T08:11:59.726Z,7.35
2018-09-08T08:14:27.291Z,7.45
2018-09-08T08:16:54.720Z,7.20
2018-09-08T08:19:22.890Z,7.15
2018-09-08T08:21:50.403Z,8.70
2018-09-08T08:24:17.825Z,6.03
2018-09-08T08:26:45.292Z,7.43
2018-09-08T08:29:12.734Z,8.45
2018-09-08T08:31:40.229Z,6.95
2018-09-08T08:53:08.030Z,8.40
2018-09-08T08:55:35.501Z,7.00
2018-09-08T08:58:03.339Z,8.25
2018-09-08T09:00:30.825Z,6.70
2018-09-08T09:02:58.355Z,6.35
2018-09-08T09:23:09.297Z,6.70
2018-09-08T09:25:36.765Z,5.90
2018-09-08T09:35:26.104Z,7.25
2018-09-08T09:40:20.526Z,6.20
2018-09-08T09:55:03.009Z,5.15
2018-09-08T10:04:51.480Z,6.50
2018-09-08T10:07:18.957Z,5.90
2018-09-08T10:09:46.391Z,5.97
2018-09-08T10:12:14.892Z,5.50
2018-09-08T10:14:42.426Z,5.55
2018-09-08T10:17:09.875Z,5.07
2018-09-08T10:19:37.431Z,7.57
2018-09-08T10:22:04.865Z,5.80
2018-09-08T10:24:32.342Z,4.80
2018-09-08T10:26:59.766Z,6.00
2018-09-08T10:29:27.548Z,6.20
2018-09-08T10:31:55.065Z,4.97
2018-09-08T10:34:22.555Z,5.55
2018-09-08T10:36:50.010Z,5.20
2018-09-08T10:39:17.480Z,7.95
2018-09-08T10:41:45.381Z,5.85
2018-09-08T10:44:13.009Z,5.10
2018-09-08T10:46:40.426Z,6.62
2018-09-08T10:49:07.933Z,5.93
2018-09-08T10:51:35.598Z,7.80
2018-09-08T10:54:03.031Z,5.70
2018-09-08T10:56:30.641Z,6.00
2018-09-08T10:58:58.998Z,5.70
2018-09-08T11:01:26.483Z,6.10
2018-09-08T11:03:53.927Z,5.85
2018-09-08T11:06:21.379Z,7.30
2018-09-08T11:08:48.790Z,7.28
2018-09-08T11:11:16.203Z,6.95
2018-09-08T11:13:43.719Z,5.80
2018-09-08T11:16:11.173Z,4.30
2018-09-08T11:21:05.694Z,6.20
2018-09-08T11:28:32.531Z,5.70
2018-09-08T11:38:27.251Z,5.00
2018-09-08T11:50:43.629Z,4.95
2018-09-08T11:53:11.115Z,5.40
2018-09-08T11:55:38.613Z,4.20
2018-09-08T11:58:06.090Z,4.90
2018-09-08T12:00:33.567Z,5.90
2018-09-08T12:03:01.073Z,4.72
2018-09-08T12:05:28.448Z,5.75
2018-09-08T12:07:55.879Z,6.80
2018-09-08T12:10:23.307Z,5.60
2018-09-08T12:12:50.951Z,5.60
2018-09-08T12:15:18.418Z,6.40
2018-09-08T12:17:45.959Z,4.80
2018-09-08T12:20:13.525Z,6.37
2018-09-08T12:22:41.019Z,4.93
2018-09-08T12:25:08.565Z,5.20
2018-09-08T12:27:36.091Z,7.25
2018-09-08T12:30:03.525Z,5.87
2018-09-08T12:32:31.030Z,6.23
2018-09-08T12:34:58.480Z,6.10
2018-09-08T12:37:25.918Z,5.40
2018-09-08T12:39:53.422Z,6.10
2018-09-08T12:42:20.867Z,4.80
2018-09-08T12:44:48.691Z,7.65
2018-09-08T12:47:16.224Z,5.65
2018-09-08T12:49:43.710Z,6.32
2018-09-08T12:52:11.128Z,6.87
2018-09-08T12:54:38.699Z,5.65
2018-09-08T12:57:06.132Z,6.37
2018-09-08T12:59:33.646Z,7.68
2018-09-08T13:02:01.144Z,5.50
2018-09-08T13:04:28.806Z,5.65
2018-09-08T13:06:56.494Z,6.30
2018-09-08T13:09:23.929Z,6.82
2018-09-08T13:11:51.351Z,5.07
2018-09-08T13:14:18.775Z,4.85
2018-09-08T13:16:46.347Z,6.45
2018-09-08T13:19:13.833Z,5.20
2018-09-08T13:21:41.287Z,5.78
2018-09-08T13:24:08.800Z,5.75
2018-09-08T13:26:36.232Z,4.40
2018-09-08T13:29:03.706Z,4.18
2018-09-08T13:31:31.128Z,5.07
2018-09-08T13:33:58.732Z,5.18
2018-09-08T13:36:26.066Z,5.22
2018-09-08T13:38:53.473Z,5.90
2018-09-08T13:41:20.938Z,4.85
2018-09-08T13:43:48.388Z,6.25
2018-09-08T13:46:15.879Z,6.37
2018-09-08T13:48:43.319Z,5.80
2018-09-08T13:51:11.036Z,5.65
2018-09-08T13:58:32.557Z,6.80
2018-09-08T15:36:34.335Z,5.20
2018-09-08T17:39:06.996Z,8.50
2018-09-08T18:08:32.852Z,5.70
2018-09-08T18:15:54.507Z,6.40
2018-09-08T19:14:43.240Z,5.00
2018-09-08T19:17:10.676Z,5.78
2018-09-08T19:19:38.092Z,5.25
2018-09-08T19:22:05.618Z,6.40
2018-09-08T19:24:33.102Z,5.78
2018-09-08T19:27:00.556Z,5.47
2018-09-08T19:29:28.001Z,5.75
2018-09-08T19:31:55.518Z,5.15
2018-09-08T19:34:22.925Z,6.28
2018-09-08T19:36:50.403Z,6.22
2018-09-08T19:39:17.945Z,6.00
2018-09-08T19:41:45.497Z,6.28
2018-09-08T19:44:12.926Z,5.95
2018-09-08T19:46:40.407Z,5.68
2018-09-08T19:49:07.822Z,6.55
2018-09-08T19:51:35.296Z,5.72
2018-09-08T19:54:02.769Z,6.80
2018-09-08T19:56:30.231Z,5.47
2018-09-08T19:58:57.824Z,6.55
2018-09-08T20:01:25.306Z,7.45
2018-09-08T20:03:52.744Z,6.68
2018-09-08T20:06:20.296Z,8.10
2018-09-08T20:08:48.013Z,8.30
2018-09-08T20:11:15.624Z,7.95
2018-09-08T20:13:43.198Z,8.65
2018-09-08T20:16:10.787Z,7.07
2018-09-08T20:18:38.258Z,7.32
2018-09-08T20:21:05.699Z,7.95
2018-09-08T20:23:33.156Z,8.05
2018-09-08T20:26:00.668Z,7.80
2018-09-08T20:28:28.257Z,9.45
2018-09-08T20:30:55.761Z,8.35
2018-09-08T20:33:23.257Z,8.43
2018-09-08T20:35:50.750Z,7.80
2018-09-08T20:38:18.203Z,9.00
2018-09-08T20:40:45.841Z,7.62
2018-09-08T20:43:13.342Z,7.45
2018-09-08T20:45:40.851Z,7.15
2018-09-08T20:48:08.436Z,6.75
2018-09-08T20:50:35.953Z,8.82
2018-09-08T20:53:03.423Z,9.75
2018-09-08T20:55:30.864Z,10.50
2018-09-08T20:57:58.382Z,10.70
2018-09-08T21:00:25.879Z,7.05
2018-09-08T21:02:53.627Z,7.10
2018-09-08T21:05:21.184Z,7.97
2018-09-08T21:07:48.731Z,8.63
2018-09-08T21:10:16.183Z,7.43
2018-09-08T21:12:43.946Z,6.78
2018-09-08T21:15:11.398Z,8.25
2018-09-08T21:17:38.902Z,6.28
2018-09-08T21:20:06.388Z,8.77
2018-09-08T21:22:33.864Z,7.32
2018-09-08T21:25:01.348Z,7.60
2018-09-08T21:27:28.862Z,6.85
2018-09-08T21:29:56.414Z,6.82
2018-09-08T21:32:24.169Z,8.05
2018-09-08T21:34:51.631Z,9.20
2018-09-08T21:37:19.183Z,7.10
2018-09-08T21:39:46.675Z,7.22
2018-09-08T21:42:14.098Z,5.78
2018-09-08T21:44:41.594Z,7.10
2018-09-08T21:47:09.036Z,6.93
2018-09-08T21:49:36.483Z,8.68
2018-09-08T21:52:04.024Z,8.10
2018-09-08T21:54:31.579Z,7.15
2018-09-08T21:56:59.039Z,6.20
2018-09-08T21:59:26.467Z,5.10
2018-09-08T22:01:53.940Z,6.80
2018-09-08T22:04:21.458Z,4.47
2018-09-08T22:06:49.087Z,5.75
2018-09-08T22:09:16.751Z,5.45
2018-09-08T22:11:44.241Z,5.30
2018-09-08T22:14:11.700Z,5.93
2018-09-08T22:16:39.180Z,7.90
2018-09-08T22:19:06.656Z,6.70
2018-09-08T22:21:34.126Z,7.12
2018-09-08T22:24:01.614Z,5.70
2018-09-08T22:26:29.095Z,5.90
2018-09-08T22:28:57.409Z,6.87
2018-09-08T22:31:25.477Z,5.57
2018-09-08T22:33:53.085Z,5.50
2018-09-08T22:36:21.963Z,6.70
2018-09-08T22:38:50.745Z,4.85
2018-09-08T22:41:18.265Z,5.15
2018-09-08T22:43:46.022Z,7.03
2018-09-08T22:46:13.599Z,6.62
2018-09-08T22:48:41.480Z,5.55
2018-09-08T22:51:09.035Z,7.22
2018-09-08T22:53:36.578Z,6.82
2018-09-08T22:56:06.351Z,5.62
2018-09-08T22:58:34.028Z,5.47
2018-09-08T23:01:04.302Z,6.30
2018-09-08T23:03:33.241Z,7.10
2018-09-08T23:06:01.573Z,5.80
2018-09-08T23:08:29.268Z,5.65
2018-09-08T23:10:56.990Z,6.12
2018-09-08T23:13:24.673Z,5.60
2018-09-08T23:15:52.117Z,6.70
2018-09-08T23:18:19.621Z,6.10
2018-09-08T23:20:47.262Z,6.85
2018-09-08T23:23:14.935Z,4.80
2018-09-08T23:25:42.536Z,5.47
2018-09-08T23:28:10.115Z,5.60
2018-09-08T23:30:37.812Z,6.00
2018-09-08T23:33:05.378Z,6.35
2018-09-08T23:35:33.201Z,6.50
2018-09-08T23:38:00.818Z,7.18
2018-09-08T23:40:28.331Z,6.47
2018-09-08T23:42:55.851Z,5.10
2018-09-08T23:45:23.591Z,5.93
2018-09-08T23:47:51.170Z,5.53
2018-09-08T23:50:18.748Z,5.90
2018-09-08T23:52:46.368Z,10.25
2018-09-08T23:55:13.820Z,6.28
2018-09-08T23:57:42.142Z,5.53
